createdAt,value
2023-04-01T00:01:06.938Z,98384.94
2023-04-01T00:03:34.528Z,98390.03
2023-04-01T00:06:01.942Z,98385.00
2023-04-01T00:08:28.959Z,98390.09
2023-04-01T00:10:56.201Z,98391.75
2023-04-01T00:13:23.237Z,98397.78
2023-04-01T00:15:50.239Z,98387.53
2023-04-01T00:18:17.267Z,98386.66
2023-04-01T00:20:48.703Z,98395.06
2023-04-01T00:23:16.127Z,98397.63
2023-04-01T00:25:43.273Z,98387.50
2023-04-01T00:28:10.764Z,98395.19
2023-04-01T00:30:38.106Z,98394.38
2023-04-01T00:33:06.025Z,98397.78
2023-04-01T00:35:33.499Z,98397.88
2023-04-01T00:38:00.791Z,98395.25
2023-04-01T00:40:33.136Z,98400.38
2023-04-01T00:43:00.754Z,98398.75
2023-04-01T00:45:39.318Z,98398.69
2023-04-01T00:48:33.867Z,98402.16
2023-04-01T00:51:06.701Z,98402.19
2023-04-01T00:53:34.239Z,98398.94
2023-04-01T00:56:05.774Z,98398.91
2023-04-01T00:58:34.141Z,98395.50
2023-04-01T01:01:01.211Z,98399.81
2023-04-01T01:03:28.748Z,98394.75
2023-04-01T01:06:11.291Z,98395.69
2023-04-01T01:09:00.272Z,98390.75
2023-04-01T01:11:42.603Z,98389.84
2023-04-01T01:14:55.183Z,98394.94
2023-04-01T01:17:57.934Z,98397.41
2023-04-01T01:20:57.064Z,98394.84
2023-04-01T01:23:42.409Z,98396.53
2023-04-01T01:26:27.007Z,98403.47
2023-04-01T01:29:12.576Z,98399.25
2023-04-01T01:31:47.192Z,98402.63
2023-04-01T01:34:14.049Z,98407.66
2023-04-01T01:36:41.052Z,98407.66
2023-04-01T01:39:10.046Z,98410.47
2023-04-01T01:41:37.748Z,98413.00
2023-04-01T01:44:05.306Z,98413.97
2023-04-01T01:46:32.418Z,98410.59
2023-04-01T01:48:59.585Z,98415.72
2023-04-01T01:51:27.646Z,98411.47
2023-04-01T01:53:55.411Z,98413.91
2023-04-01T01:56:24.818Z,98417.22
2023-04-01T01:59:01.407Z,98412.94
2023-04-01T02:01:29.663Z,98419.81
2023-04-01T02:04:01.477Z,98413.91
2023-04-01T02:06:30.588Z,98413.84
2023-04-01T02:09:00.447Z,98413.84
2023-04-01T02:11:30.588Z,98410.47
2023-04-01T02:13:59.455Z,98408.69
2023-04-01T02:16:58.740Z,98414.56
2023-04-01T02:19:31.391Z,98411.19
2023-04-01T02:22:02.176Z,98410.47
2023-04-01T02:24:29.624Z,98411.63
2023-04-01T02:26:56.758Z,98414.34
2023-04-01T02:29:26.078Z,98412.59
2023-04-01T02:31:53.596Z,98411.75
2023-04-01T02:34:21.284Z,98416.13
2023-04-01T02:36:49.313Z,98417.75
2023-04-01T02:39:16.215Z,98421.28
2023-04-01T02:41:44.235Z,98423.13
2023-04-01T02:44:12.196Z,98424.91
2023-04-01T02:46:39.282Z,98426.47
2023-04-01T02:49:06.499Z,98425.66
2023-04-01T02:51:34.138Z,98431.59
2023-04-01T02:54:01.326Z,98431.53
2023-04-01T02:56:29.091Z,98430.59
2023-04-01T02:58:56.145Z,98439.81
2023-04-01T03:01:23.365Z,98444.84
2023-04-01T03:03:50.530Z,98449.00
2023-04-01T03:06:17.715Z,98453.25
2023-04-01T03:08:45.498Z,98459.16
2023-04-01T03:11:12.608Z,98452.25
2023-04-01T03:13:39.807Z,98459.16
2023-04-01T03:16:07.246Z,98454.09
2023-04-01T03:18:35.699Z,98454.81
2023-04-01T03:21:23.443Z,98455.63
2023-04-01T03:23:50.816Z,98454.69
2023-04-01T03:26:17.953Z,98442.78
2023-04-01T03:28:45.356Z,98448.81
2023-04-01T03:31:12.827Z,98448.88
2023-04-01T03:33:46.507Z,98452.25
2023-04-01T03:36:13.952Z,98453.19
2023-04-01T03:38:44.165Z,98460.19
2023-04-01T03:41:14.623Z,98461.03
2023-04-01T03:43:41.798Z,98456.69
2023-04-01T03:46:09.016Z,98465.06
2023-04-01T03:48:36.134Z,98463.22
2023-04-01T03:51:03.258Z,98460.78
2023-04-01T03:53:30.717Z,98468.38
2023-04-01T03:56:05.004Z,98473.66
2023-04-01T03:58:32.163Z,98477.16
2023-04-01T04:00:59.431Z,98480.72
2023-04-01T04:03:27.333Z,98483.19
2023-04-01T04:05:54.482Z,98479.78
2023-04-01T04:08:22.683Z,98487.41
2023-04-01T04:10:56.497Z,98492.41
2023-04-01T04:13:23.521Z,98493.22
2023-04-01T04:15:59.478Z,98499.97
2023-04-01T04:18:26.572Z,98499.09
2023-04-01T04:20:53.433Z,98511.78
2023-04-01T04:23:20.884Z,98516.06
2023-04-01T04:25:58.407Z,98516.94
2023-04-01T04:28:27.673Z,98515.28
2023-04-01T04:30:56.732Z,98514.47
2023-04-01T04:33:23.956Z,98516.22
2023-04-01T04:35:51.008Z,98510.34
2023-04-01T04:38:18.256Z,98512.84
2023-04-01T04:40:45.465Z,98517.94
2023-04-01T04:43:14.307Z,98517.25
2023-04-01T04:45:41.881Z,98517.38
2023-04-01T04:48:10.705Z,98524.13
2023-04-01T04:50:37.984Z,98523.34
2023-04-01T04:53:05.017Z,98528.63
2023-04-01T04:55:33.594Z,98531.28
2023-04-01T04:58:32.884Z,98527.88
2023-04-01T05:01:07.122Z,98534.09
2023-04-01T05:03:34.450Z,98532.34
2023-04-01T05:06:01.530Z,98541.66
2023-04-01T05:08:28.599Z,98541.66
2023-04-01T05:10:56.680Z,98538.38
2023-04-01T05:13:23.762Z,98539.16
2023-04-01T05:15:50.922Z,98546.63
2023-04-01T05:18:18.168Z,98546.69
2023-04-01T05:20:52.296Z,98548.47
2023-04-01T05:23:21.607Z,98548.59
2023-04-01T05:25:49.749Z,98553.63
2023-04-01T05:28:16.978Z,98543.44
2023-04-01T05:30:46.179Z,98548.66
2023-04-01T05:33:24.832Z,98550.34
2023-04-01T05:35:51.971Z,98549.69
2023-04-01T05:38:18.979Z,98553.97
2023-04-01T05:40:46.682Z,98557.31
2023-04-01T05:43:13.993Z,98560.63
2023-04-01T05:45:42.068Z,98561.38
2023-04-01T05:48:14.942Z,98561.41
2023-04-01T05:50:42.811Z,98570.91
2023-04-01T05:53:11.305Z,98567.50
2023-04-01T05:55:40.845Z,98564.06
2023-04-01T05:58:07.962Z,98567.44
2023-04-01T06:00:36.959Z,98565.84
2023-04-01T06:03:04.162Z,98567.63
2023-04-01T06:05:42.676Z,98574.63
2023-04-01T06:08:28.294Z,98578.09
2023-04-01T06:10:58.267Z,98588.44
2023-04-01T06:13:41.432Z,98586.00
2023-04-01T06:16:11.453Z,98589.44
2023-04-01T06:19:02.354Z,98599.59
2023-04-01T06:21:59.842Z,98594.47
2023-04-01T06:24:54.941Z,98598.78
2023-04-01T06:27:50.246Z,98602.22
2023-04-01T06:30:39.278Z,98606.44
2023-04-01T06:33:29.830Z,98599.66
2023-04-01T06:36:15.543Z,98603.97
2023-04-01T06:39:11.311Z,98609.97
2023-04-01T06:41:48.097Z,98612.53
2023-04-01T06:44:27.691Z,98614.19
2023-04-01T06:47:45.657Z,98607.38
2023-04-01T06:50:50.948Z,98609.88
2023-04-01T06:54:04.186Z,98608.97
2023-04-01T06:56:51.635Z,98616.69
2023-04-01T06:59:34.147Z,98610.88
2023-04-01T07:02:06.102Z,98620.25
2023-04-01T07:04:37.763Z,98620.19
2023-04-01T07:07:07.294Z,98627.03
2023-04-01T07:09:40.920Z,98630.50
2023-04-01T07:12:49.117Z,98633.91
2023-04-01T07:15:19.103Z,98633.91
2023-04-01T07:17:46.462Z,98632.31
2023-04-01T07:20:32.090Z,98634.91
2023-04-01T07:23:00.537Z,98640.94
2023-04-01T07:25:57.196Z,98633.50
2023-04-01T07:28:36.740Z,98641.44
2023-04-01T07:31:47.062Z,98636.38
2023-04-01T07:34:30.012Z,98638.13
2023-04-01T07:37:09.063Z,98641.56
2023-04-01T07:39:57.876Z,98652.56
2023-04-01T07:42:46.295Z,98649.25
2023-04-01T07:45:25.418Z,98656.09
2023-04-01T07:48:14.872Z,98663.78
2023-04-01T07:51:32.684Z,98664.63
2023-04-01T07:54:05.753Z,98663.00
2023-04-01T07:56:35.749Z,98668.22
2023-04-01T07:59:24.692Z,98675.06
2023-04-01T08:02:18.728Z,98671.53
2023-04-01T08:05:20.874Z,98673.34
2023-04-01T08:07:59.569Z,98673.44
2023-04-01T08:10:53.692Z,98681.84
2023-04-01T08:13:52.173Z,98688.63
2023-04-01T08:16:54.385Z,98697.91
2023-04-01T08:19:52.934Z,98696.19
2023-04-01T08:22:28.720Z,98699.69
2023-04-01T08:25:03.133Z,98701.59
2023-04-01T08:28:00.493Z,98700.81
2023-04-01T08:30:34.578Z,98705.16
2023-04-01T08:33:22.710Z,98697.63
2023-04-01T08:36:10.349Z,98702.16
2023-04-01T08:38:56.984Z,98695.63
2023-04-01T08:41:30.812Z,98697.56
2023-04-01T08:44:45.379Z,98704.66
2023-04-01T08:47:43.082Z,98700.59
2023-04-01T08:50:37.533Z,98712.75
2023-04-01T08:53:45.964Z,98718.91
2023-04-01T08:56:21.840Z,98724.09
2023-04-01T08:59:13.264Z,98721.56
2023-04-01T09:02:09.468Z,98724.25
2023-04-01T09:05:50.454Z,98731.97
2023-04-01T09:09:09.854Z,98735.38
2023-04-01T09:12:07.986Z,98739.63
2023-04-01T09:14:57.907Z,98743.06
2023-04-01T09:17:51.570Z,98749.94
2023-04-01T09:20:54.078Z,98743.06
2023-04-01T09:23:34.293Z,98749.03
2023-04-01T09:26:24.475Z,98753.31
2023-04-01T09:29:03.555Z,98746.50
2023-04-01T09:31:58.414Z,98747.34
2023-04-01T09:35:07.974Z,98755.94
2023-04-01T09:37:39.009Z,98759.31
2023-04-01T09:40:19.938Z,98768.69
2023-04-01T09:43:37.287Z,98768.63
2023-04-01T09:46:15.083Z,98763.50
2023-04-01T09:49:00.008Z,98766.91
2023-04-01T09:51:34.533Z,98772.94
2023-04-01T09:54:39.151Z,98772.16
2023-04-01T09:57:28.017Z,98767.94
2023-04-01T10:00:14.953Z,98778.34
2023-04-01T10:03:38.820Z,98774.19
2023-04-01T10:06:24.421Z,98768.25
2023-04-01T10:09:16.259Z,98779.38
2023-04-01T10:12:07.845Z,98777.69
2023-04-01T10:14:47.048Z,98777.81
2023-04-01T10:17:32.297Z,98783.94
2023-04-01T10:20:13.531Z,98779.81
2023-04-01T10:23:14.990Z,98772.22
2023-04-01T10:26:09.663Z,98785.19
2023-04-01T10:29:09.389Z,98789.59
2023-04-01T10:31:59.757Z,98799.09
2023-04-01T10:34:27.173Z,98793.94
2023-04-01T10:37:04.504Z,98803.38
2023-04-01T10:40:13.721Z,98802.53
2023-04-01T10:43:11.495Z,98809.41
2023-04-01T10:46:09.037Z,98808.56
2023-04-01T10:48:45.539Z,98815.44
2023-04-01T10:51:40.893Z,98813.72
2023-04-01T10:54:48.131Z,98804.22
2023-04-01T10:58:19.748Z,98817.94
2023-04-01T11:01:44.350Z,98813.66
2023-04-01T11:04:47.877Z,98805.09
2023-04-01T11:08:08.231Z,98804.16
2023-04-01T11:11:14.590Z,98802.38
2023-04-01T11:13:49.031Z,98806.69
2023-04-01T11:16:49.470Z,98804.97
2023-04-01T11:19:38.225Z,98812.66
2023-04-01T11:22:15.401Z,98810.84
2023-04-01T11:25:12.820Z,98821.94
2023-04-01T11:28:28.873Z,98828.88
2023-04-01T11:31:18.032Z,98828.09
2023-04-01T11:33:54.142Z,98839.31
2023-04-01T11:37:00.691Z,98833.28
2023-04-01T11:40:15.261Z,98832.41
2023-04-01T11:43:33.451Z,98828.03
2023-04-01T11:46:25.253Z,98836.50
2023-04-01T11:49:07.880Z,98838.09
2023-04-01T11:52:15.582Z,98829.44
2023-04-01T11:55:16.811Z,98825.19
2023-04-01T11:58:05.963Z,98822.75
2023-04-01T12:00:54.006Z,98831.41
2023-04-01T12:03:58.860Z,98823.72
2023-04-01T12:06:47.769Z,98833.16
2023-04-01T12:09:33.626Z,98834.09
2023-04-01T12:12:19.462Z,98831.50
2023-04-01T12:15:23.559Z,98837.41
2023-04-01T12:17:52.376Z,98840.78
2023-04-01T12:20:34.804Z,98835.53
2023-04-01T12:23:26.514Z,98832.00
2023-04-01T12:26:02.385Z,98829.47
2023-04-01T12:28:35.720Z,98836.41
2023-04-01T12:31:28.578Z,98836.44
2023-04-01T12:34:18.505Z,98833.94
2023-04-01T12:37:10.712Z,98830.56
2023-04-01T12:39:57.630Z,98834.94
2023-04-01T12:43:01.034Z,98833.22
2023-04-01T12:45:32.105Z,98840.13
2023-04-01T12:48:36.466Z,98839.31
2023-04-01T12:51:15.761Z,98843.66
2023-04-01T12:54:09.166Z,98841.09
2023-04-01T12:56:40.060Z,98841.16
2023-04-01T12:59:46.986Z,98839.44
2023-04-01T13:02:51.177Z,98849.75
2023-04-01T13:05:33.518Z,98842.91
2023-04-01T13:08:13.316Z,98848.06
2023-04-01T13:10:58.526Z,98845.47
2023-04-01T13:13:37.285Z,98855.75
2023-04-01T13:16:17.715Z,98838.59
2023-04-01T13:19:10.865Z,98846.34
2023-04-01T13:22:00.158Z,98840.31
2023-04-01T13:24:51.229Z,98848.06
2023-04-01T13:27:22.087Z,98848.88
2023-04-01T13:30:03.412Z,98854.91
2023-04-01T13:32:59.599Z,98857.50
2023-04-01T13:35:36.826Z,98862.66
2023-04-01T13:38:24.000Z,98857.50
2023-04-01T13:41:04.089Z,98867.78
2023-04-01T13:43:34.016Z,98868.66
2023-04-01T13:46:24.142Z,98875.50
2023-04-01T13:49:09.754Z,98877.22
2023-04-01T13:51:49.091Z,98884.06
2023-04-01T13:54:44.869Z,98880.63
2023-04-01T13:57:43.059Z,98887.50
2023-04-01T14:00:20.879Z,98888.34
2023-04-01T14:03:06.366Z,98893.50
2023-04-01T14:05:54.240Z,98900.34
2023-04-01T14:08:41.614Z,98897.72
2023-04-01T14:11:39.936Z,98896.00
2023-04-01T14:14:30.622Z,98900.28
2023-04-01T14:17:20.792Z,98900.28
2023-04-01T14:20:05.018Z,98904.53
2023-04-01T14:26:08.043Z,98906.25
2023-04-01T14:28:47.853Z,98901.09
2023-04-01T14:32:00.231Z,98912.19
2023-04-01T14:34:39.582Z,98913.06
2023-04-01T14:38:02.954Z,98918.22
2023-04-01T14:40:54.705Z,98919.94
2023-04-01T14:44:30.487Z,98925.06
2023-04-01T14:47:23.086Z,98930.22
2023-04-01T14:50:19.429Z,98940.47
2023-04-01T14:53:15.089Z,98938.72
2023-04-01T14:55:47.043Z,98949.03
2023-04-01T14:58:20.952Z,98947.31
2023-04-01T15:00:55.318Z,98946.44
2023-04-01T15:03:40.584Z,98944.69
2023-04-01T15:06:18.694Z,98948.97
2023-04-01T15:08:54.703Z,98953.25
2023-04-01T15:11:27.225Z,98948.94
2023-04-01T15:14:13.093Z,98952.38
2023-04-01T15:16:56.656Z,98957.50
2023-04-01T15:19:56.005Z,98964.31
2023-04-01T15:22:53.903Z,98961.72
2023-04-01T15:25:29.057Z,98964.28
2023-04-01T15:28:08.118Z,98960.88
2023-04-01T15:31:10.583Z,98966.84
2023-04-01T15:33:53.955Z,98968.56
2023-04-01T15:37:09.357Z,98973.69
2023-04-01T15:39:50.121Z,98975.38
2023-04-01T15:42:42.069Z,98977.09
2023-04-01T15:45:17.976Z,98985.66
2023-04-01T15:48:11.068Z,98979.69
2023-04-01T15:51:00.682Z,98982.22
2023-04-01T15:53:46.783Z,98985.66
2023-04-01T15:56:42.849Z,98995.88
2023-04-01T15:59:35.973Z,98995.03
2023-04-01T16:02:32.128Z,98994.16
2023-04-01T16:05:17.936Z,99005.31
2023-04-01T16:07:51.136Z,99014.75
2023-04-01T16:10:30.576Z,99006.16
2023-04-01T16:13:13.984Z,99000.16
2023-04-01T16:15:58.938Z,99007.84
2023-04-01T16:18:56.528Z,99006.13
2023-04-01T16:21:36.789Z,99003.53
2023-04-01T16:24:24.968Z,99006.09
2023-04-01T16:26:57.680Z,99008.63
2023-04-01T16:29:29.110Z,99013.78
2023-04-01T16:32:25.273Z,99018.06
2023-04-01T16:35:04.323Z,99024.88
2023-04-01T16:37:37.171Z,99030.84
2023-04-01T16:40:21.895Z,99030.00
2023-04-01T16:43:17.293Z,99031.72
2023-04-01T16:46:30.072Z,99036.81
2023-04-01T16:49:01.959Z,99029.94
2023-04-01T16:51:46.916Z,99037.63
2023-04-01T16:54:36.708Z,99043.59
2023-04-01T16:57:10.202Z,99043.56
2023-04-01T16:59:46.488Z,99047.81
2023-04-01T17:02:18.615Z,99052.97
2023-04-01T17:04:46.672Z,99053.81
2023-04-01T17:07:20.896Z,99056.34
2023-04-01T17:10:12.587Z,99063.22
2023-04-01T17:12:52.738Z,99069.16
2023-04-01T17:16:05.664Z,99069.97
2023-04-01T17:18:37.076Z,99063.06
2023-04-01T17:21:09.000Z,99069.09
2023-04-01T17:23:45.400Z,99067.38
2023-04-01T17:26:12.174Z,99074.19
2023-04-01T17:28:59.361Z,99075.88
2023-04-01T17:31:48.043Z,99082.72
2023-04-01T17:34:34.292Z,99085.28
2023-04-01T17:37:36.292Z,99087.84
2023-04-01T17:40:18.293Z,99087.78
2023-04-01T17:42:49.247Z,99089.50
2023-04-01T17:46:02.725Z,99091.19
2023-04-01T17:49:23.490Z,99097.16
2023-04-01T17:51:59.548Z,99101.41
2023-04-01T17:54:38.767Z,99097.97
2023-04-01T17:57:30.152Z,99107.34
2023-04-01T17:59:57.019Z,99102.22
2023-04-01T18:02:45.596Z,99115.06
2023-04-01T18:05:39.809Z,99115.94
2023-04-01T18:08:18.564Z,99118.50
2023-04-01T18:11:23.620Z,99119.38
2023-04-01T18:14:08.946Z,99113.34
2023-04-01T18:16:54.325Z,99116.75
2023-04-01T18:19:40.465Z,99117.63
2023-04-01T18:22:07.315Z,99129.63
2023-04-01T18:24:45.206Z,99127.91
2023-04-01T18:27:38.099Z,99122.72
2023-04-01T18:30:29.151Z,99125.28
2023-04-01T18:33:22.606Z,99129.59
2023-04-01T18:35:58.483Z,99128.69
2023-04-01T18:38:31.617Z,99130.38
2023-04-01T18:41:17.212Z,99135.53
2023-04-01T18:44:02.381Z,99134.66
2023-04-01T18:46:45.668Z,99134.63
2023-04-01T18:49:24.574Z,99140.59
2023-04-01T18:51:57.068Z,99141.44
2023-04-01T18:54:49.355Z,99141.44
2023-04-01T18:57:20.677Z,99145.78
2023-04-01T19:00:09.824Z,99137.19
2023-04-01T19:02:43.123Z,99141.44
2023-04-01T19:05:35.939Z,99145.75
2023-04-01T19:08:25.920Z,99152.66
2023-04-01T19:11:01.282Z,99148.31
2023-04-01T19:14:07.069Z,99152.56
2023-04-01T19:16:52.717Z,99150.88
2023-04-01T19:19:57.033Z,99150.88
2023-04-01T19:22:51.893Z,99150.03
2023-04-01T19:25:32.532Z,99147.44
2023-04-01T19:28:02.375Z,99151.66
2023-04-01T19:30:36.421Z,99151.66
2023-04-01T19:33:21.934Z,99158.50
2023-04-01T19:36:05.590Z,99155.91
2023-04-01T19:38:40.337Z,99149.94
2023-04-01T19:41:16.304Z,99156.84
2023-04-01T19:43:55.625Z,99151.69
2023-04-01T19:46:37.808Z,99150.78
2023-04-01T19:49:07.618Z,99150.78
2023-04-01T19:51:56.122Z,99149.09
2023-04-01T19:54:44.419Z,99150.75
2023-04-01T19:57:56.173Z,99152.44
2023-04-01T20:00:30.601Z,99156.69
2023-04-01T20:03:12.709Z,99152.38
2023-04-01T20:05:41.365Z,99151.53
2023-04-01T20:08:38.954Z,99159.28
2023-04-01T20:11:08.641Z,99159.25
2023-04-01T20:13:38.769Z,99158.41
2023-04-01T20:16:07.171Z,99160.13
2023-04-01T20:18:40.808Z,99165.28
2023-04-01T20:21:23.708Z,99160.13
2023-04-01T20:24:01.896Z,99168.63
2023-04-01T20:26:50.729Z,99164.38
2023-04-01T20:29:37.584Z,99168.66
2023-04-01T20:32:13.812Z,99178.06
2023-04-01T20:35:02.580Z,99179.81
2023-04-01T20:37:41.436Z,99179.81
2023-04-01T20:40:14.448Z,99177.22
2023-04-01T20:43:14.628Z,99181.47
2023-04-01T20:45:57.593Z,99192.53
2023-04-01T20:48:46.676Z,99204.50
2023-04-01T20:51:18.888Z,99208.75
2023-04-01T20:54:02.544Z,99204.47
2023-04-01T20:56:40.464Z,99206.19
2023-04-01T20:59:55.216Z,99207.91
2023-04-01T21:02:31.346Z,99217.34
2023-04-01T21:05:11.427Z,99213.09
2023-04-01T21:08:07.083Z,99218.22
2023-04-01T21:11:03.627Z,99216.56
2023-04-01T21:14:25.864Z,99217.44
2023-04-01T21:17:17.386Z,99226.91
2023-04-01T21:19:52.113Z,99219.22
2023-04-01T21:22:31.130Z,99232.91
2023-04-01T21:25:19.151Z,99232.03
2023-04-01T21:28:02.056Z,99227.75
2023-04-01T21:30:45.159Z,99222.63
2023-04-01T21:33:33.791Z,99231.16
2023-04-01T21:36:19.422Z,99225.19
2023-04-01T21:39:14.682Z,99230.31
2023-04-01T21:41:57.007Z,99234.56
2023-04-01T21:44:45.087Z,99232.91
2023-04-01T21:47:22.846Z,99232.88
2023-04-01T21:50:15.928Z,99238.06
2023-04-01T21:53:20.494Z,99244.94
2023-04-01T21:56:24.771Z,99239.84
2023-04-01T21:59:03.656Z,99239.84
2023-04-01T22:01:57.410Z,99245.88
2023-04-01T22:04:46.111Z,99256.19
2023-04-01T22:07:16.521Z,99251.03
2023-04-01T22:10:06.198Z,99252.78
2023-04-01T22:12:51.404Z,99250.22
2023-04-01T22:15:47.502Z,99244.25
2023-04-01T22:18:17.407Z,99248.50
2023-04-01T22:20:46.119Z,99249.34
2023-04-01T22:23:34.117Z,99245.06
2023-04-01T22:26:07.061Z,99244.19
2023-04-01T22:28:58.351Z,99252.78
2023-04-01T22:31:52.317Z,99246.75
2023-04-01T22:34:43.368Z,99246.75
2023-04-01T22:37:13.191Z,99249.38
2023-04-01T22:39:56.156Z,99254.50
2023-04-01T22:42:42.018Z,99263.94
2023-04-01T22:45:36.619Z,99259.63
2023-04-01T22:48:16.775Z,99267.38
2023-04-01T22:50:51.672Z,99261.38
2023-04-01T22:53:33.689Z,99264.78
2023-04-01T22:56:02.509Z,99257.06
2023-04-01T22:58:35.688Z,99255.41
2023-04-01T23:01:06.752Z,99259.69
2023-04-01T23:03:40.464Z,99263.09
2023-04-01T23:06:07.617Z,99268.25
2023-04-01T23:08:55.403Z,99268.28
2023-04-01T23:11:34.910Z,99274.25
2023-04-01T23:14:26.401Z,99274.25
2023-04-01T23:17:03.971Z,99272.53
2023-04-01T23:19:52.396Z,99271.66
2023-04-01T23:22:34.411Z,99277.63
2023-04-01T23:25:46.343Z,99284.47
2023-04-01T23:28:16.024Z,99276.78
2023-04-01T23:30:42.751Z,99274.22
2023-04-01T23:33:29.978Z,99284.53
2023-04-01T23:36:11.660Z,99287.09
2023-04-01T23:38:40.527Z,99286.22
2023-04-01T23:41:07.626Z,99293.91
2023-04-01T23:43:39.004Z,99292.19
2023-04-01T23:46:08.502Z,99282.75
2023-04-01T23:48:38.176Z,99279.34
2023-04-01T23:51:05.300Z,99287.06
2023-04-01T23:53:34.715Z,99287.88
2023-04-01T23:56:03.096Z,99287.03
2023-04-01T23:58:40.381Z,99293.91
